createdAt,value
2023-01-20T00:01:43.192Z,35.08
2023-01-20T00:04:10.795Z,24.85
2023-01-20T00:06:38.333Z,37.45
2023-01-20T00:09:06.353Z,33.05
2023-01-20T00:11:34.160Z,31.17
2023-01-20T00:14:03.144Z,31.33
2023-01-20T00:16:31.950Z,34.47
2023-01-20T00:19:01.011Z,33.28
2023-01-20T00:21:29.038Z,32.03
2023-01-20T00:23:56.886Z,35.40
2023-01-20T00:26:25.591Z,28.58
2023-01-20T00:28:54.923Z,24.75
2023-01-20T00:31:25.244Z,29.42
2023-01-20T00:33:53.807Z,25.40
2023-01-20T00:36:23.881Z,25.17
2023-01-20T00:38:51.484Z,34.25
2023-01-20T00:41:19.227Z,25.58
2023-01-20T00:43:46.874Z,32.80
2023-01-20T00:46:14.509Z,29.27
2023-01-20T00:48:42.196Z,25.08
2023-01-20T00:51:10.381Z,23.60
2023-01-20T00:53:39.284Z,27.88
2023-01-20T00:56:07.440Z,27.25
2023-01-20T00:58:34.953Z,29.45
2023-01-20T01:01:02.500Z,32.33
2023-01-20T01:03:30.345Z,28.42
2023-01-20T01:06:07.058Z,30.85
2023-01-20T01:08:34.650Z,28.60
2023-01-20T01:11:04.026Z,37.20
2023-01-20T01:13:32.183Z,35.78
2023-01-20T01:15:59.812Z,30.25
2023-01-20T01:18:27.334Z,31.08
2023-01-20T01:20:54.795Z,30.13
2023-01-20T01:23:22.391Z,32.08
2023-01-20T01:25:49.850Z,27.02
2023-01-20T01:28:18.659Z,25.48
2023-01-20T01:30:46.274Z,32.42
2023-01-20T01:33:13.738Z,27.13
2023-01-20T01:35:42.063Z,23.38
2023-01-20T01:38:09.583Z,34.33
2023-01-20T01:40:37.032Z,28.52
2023-01-20T01:43:04.543Z,26.30
2023-01-20T01:45:34.629Z,24.25
2023-01-20T01:48:05.361Z,26.00
2023-01-20T01:50:38.644Z,24.65
2023-01-20T01:55:36.006Z,23.98
2023-01-20T01:58:04.086Z,25.08
2023-01-20T02:00:31.589Z,22.42
2023-01-20T02:03:00.499Z,25.15
2023-01-20T02:05:29.561Z,25.48
2023-01-20T02:07:58.997Z,26.38
2023-01-20T02:10:26.567Z,29.33
2023-01-20T02:12:54.313Z,32.20
2023-01-20T02:15:28.411Z,28.63
2023-01-20T02:18:16.971Z,30.77
2023-01-20T02:21:07.491Z,28.42
2023-01-20T02:23:53.942Z,32.70
2023-01-20T02:26:38.021Z,26.83
2023-01-20T02:29:21.875Z,30.13
2023-01-20T02:32:22.973Z,32.15
2023-01-20T02:34:55.210Z,36.00
2023-01-20T02:37:26.202Z,32.63
2023-01-20T02:40:01.393Z,32.95
2023-01-20T02:42:35.460Z,34.03
2023-01-20T02:45:06.415Z,30.98
2023-01-20T02:47:38.495Z,30.42
2023-01-20T02:50:09.077Z,28.40
2023-01-20T02:52:39.416Z,25.25
2023-01-20T02:55:10.349Z,28.67
2023-01-20T02:57:42.925Z,27.27
2023-01-20T03:00:14.014Z,25.00
2023-01-20T03:02:45.587Z,29.60
2023-01-20T03:05:17.155Z,27.60
2023-01-20T03:07:45.805Z,23.92
2023-01-20T03:10:17.354Z,28.60
2023-01-20T03:12:47.630Z,27.00
2023-01-20T03:15:16.181Z,25.77
2023-01-20T03:17:45.248Z,26.13
2023-01-20T03:20:13.367Z,22.52
2023-01-20T03:22:40.928Z,29.23
2023-01-20T03:25:10.572Z,29.60
2023-01-20T03:27:38.328Z,28.88
2023-01-20T03:30:07.868Z,26.02
2023-01-20T03:32:35.452Z,25.60
2023-01-20T03:35:04.520Z,23.83
2023-01-20T03:37:32.015Z,25.92
2023-01-20T03:39:59.609Z,24.15
2023-01-20T03:42:30.978Z,30.80
2023-01-20T03:45:04.786Z,29.00
2023-01-20T03:47:44.990Z,26.33
2023-01-20T03:50:19.279Z,26.35
2023-01-20T03:52:51.687Z,30.45
2023-01-20T03:55:24.133Z,29.42
2023-01-20T03:57:55.204Z,28.05
2023-01-20T04:00:25.051Z,24.75
2023-01-20T04:02:54.757Z,26.48
2023-01-20T04:05:23.713Z,19.75
2023-01-20T04:07:51.299Z,26.35
2023-01-20T04:10:19.314Z,25.98
2023-01-20T04:12:46.808Z,25.67
2023-01-20T04:15:14.782Z,23.33
2023-01-20T04:17:42.559Z,26.23
2023-01-20T04:20:11.360Z,28.05
2023-01-20T04:22:46.999Z,19.35
2023-01-20T04:25:16.630Z,16.83
2023-01-20T04:27:44.485Z,24.10
2023-01-20T04:30:14.257Z,24.38
2023-01-20T04:32:41.766Z,20.83
2023-01-20T04:35:11.195Z,21.17
2023-01-20T04:37:38.653Z,24.42
2023-01-20T04:40:08.927Z,18.80
2023-01-20T04:42:36.469Z,18.10
2023-01-20T04:45:04.239Z,27.52
2023-01-20T04:47:31.949Z,28.55
2023-01-20T04:49:59.455Z,26.77
2023-01-20T04:52:26.984Z,26.42
2023-01-20T04:54:54.516Z,31.50
2023-01-20T04:57:23.379Z,26.15
2023-01-20T04:59:50.873Z,22.55
2023-01-20T05:02:18.490Z,31.92
2023-01-20T05:04:46.125Z,24.02
2023-01-20T05:07:13.656Z,21.95
2023-01-20T05:09:41.124Z,32.17
2023-01-20T05:12:08.675Z,19.23
2023-01-20T05:14:37.462Z,22.00
2023-01-20T05:17:04.997Z,26.52
2023-01-20T05:19:32.460Z,18.95
2023-01-20T05:22:00.358Z,21.90
2023-01-20T05:24:27.811Z,22.85
2023-01-20T05:26:55.320Z,21.45
2023-01-20T05:29:22.899Z,24.60
2023-01-20T05:31:51.686Z,24.98
2023-01-20T05:34:19.155Z,27.98
2023-01-20T05:36:46.726Z,21.38
2023-01-20T05:39:14.236Z,24.10
2023-01-20T05:41:41.731Z,21.23
2023-01-20T05:44:09.212Z,19.58
2023-01-20T05:46:36.713Z,20.23
2023-01-20T05:49:05.491Z,19.52
2023-01-20T05:51:33.087Z,24.90
2023-01-20T05:54:00.575Z,22.63
2023-01-20T05:56:28.058Z,18.42
2023-01-20T05:58:55.965Z,26.73
2023-01-20T06:01:24.035Z,24.77
2023-01-20T06:03:51.647Z,25.75
2023-01-20T06:06:20.621Z,25.17
2023-01-20T06:08:49.802Z,21.27
2023-01-20T06:11:18.009Z,27.10
2023-01-20T06:13:48.967Z,24.92
2023-01-20T06:16:17.367Z,24.60
2023-01-20T06:18:44.910Z,19.08
2023-01-20T06:21:12.747Z,25.17
2023-01-20T06:23:41.719Z,23.42
2023-01-20T06:26:11.921Z,44.05
2023-01-20T06:28:39.428Z,61.22
2023-01-20T06:31:08.955Z,24.45
2023-01-20T06:33:36.551Z,32.88
2023-01-20T06:36:05.304Z,23.65
2023-01-20T06:38:34.294Z,31.73
2023-01-20T06:41:05.033Z,26.20
2023-01-20T06:43:33.913Z,22.08
2023-01-20T06:46:01.591Z,26.92
2023-01-20T06:48:29.280Z,27.67
2023-01-20T06:51:01.461Z,25.38
2023-01-20T06:53:28.947Z,19.85
2023-01-20T06:55:57.068Z,27.45
2023-01-20T06:58:26.856Z,28.92
2023-01-20T07:00:54.640Z,21.17
2023-01-20T07:03:22.342Z,23.15
2023-01-20T07:05:55.256Z,25.13
2023-01-20T07:08:22.997Z,24.10
2023-01-20T07:10:50.448Z,21.20
2023-01-20T07:13:17.943Z,18.85
2023-01-20T07:15:46.813Z,25.45
2023-01-20T07:18:14.324Z,20.88
2023-01-20T07:20:43.247Z,27.40
2023-01-20T07:23:10.948Z,24.63
2023-01-20T07:25:39.508Z,23.30
2023-01-20T07:28:07.403Z,21.45
2023-01-20T07:30:34.915Z,22.95
2023-01-20T07:33:05.508Z,20.92
2023-01-20T07:35:33.016Z,25.77
2023-01-20T07:38:00.588Z,24.40
2023-01-20T07:40:28.052Z,21.25
2023-01-20T07:42:55.513Z,26.98
2023-01-20T07:45:22.976Z,35.10
2023-01-20T07:47:50.427Z,35.10
2023-01-20T07:50:19.244Z,29.80
2023-01-20T07:52:46.708Z,25.25
2023-01-20T07:55:14.596Z,26.20
2023-01-20T07:57:42.242Z,26.35
2023-01-20T08:00:10.987Z,26.33
2023-01-20T08:02:39.148Z,24.60
2023-01-20T08:05:10.488Z,26.08
2023-01-20T08:07:39.331Z,24.00
2023-01-20T08:10:07.910Z,20.45
2023-01-20T08:12:35.440Z,21.20
2023-01-20T08:15:02.952Z,19.02
2023-01-20T08:17:30.411Z,26.60
2023-01-20T08:19:58.967Z,28.58
2023-01-20T08:22:26.749Z,28.70
2023-01-20T08:24:55.504Z,21.88
2023-01-20T08:27:22.939Z,17.13
2023-01-20T08:29:50.362Z,30.02
2023-01-20T08:32:17.828Z,25.52
2023-01-20T08:34:45.383Z,28.98
2023-01-20T08:37:12.906Z,32.58
2023-01-20T08:39:40.367Z,28.17
2023-01-20T08:42:09.165Z,35.58
2023-01-20T08:44:36.627Z,24.55
2023-01-20T08:47:04.462Z,29.67
2023-01-20T08:49:32.217Z,32.60
2023-01-20T08:51:59.712Z,49.65
2023-01-20T08:54:29.313Z,55.55
2023-01-20T08:56:56.808Z,45.47
2023-01-20T08:59:25.576Z,45.08
2023-01-20T09:01:53.041Z,28.85
2023-01-20T09:04:20.494Z,26.40
2023-01-20T09:06:50.194Z,53.45
2023-01-20T09:09:19.320Z,41.22
2023-01-20T09:11:51.151Z,40.47
2023-01-20T09:14:19.089Z,37.55
2023-01-20T09:16:48.471Z,43.53
2023-01-20T09:19:16.011Z,43.47
2023-01-20T09:21:43.619Z,37.08
2023-01-20T09:24:17.688Z,37.45
2023-01-20T09:26:45.317Z,35.40
2023-01-20T09:29:15.346Z,43.63
2023-01-20T09:31:45.238Z,37.42
2023-01-20T09:34:19.057Z,33.50
2023-01-20T09:36:46.918Z,35.15
2023-01-20T09:39:32.173Z,52.70
2023-01-20T09:42:22.423Z,32.35
2023-01-20T09:44:53.395Z,50.92
2023-01-20T09:47:31.369Z,33.45
2023-01-20T09:50:27.620Z,40.47
2023-01-20T09:53:04.748Z,38.45
2023-01-20T09:55:40.685Z,38.35
2023-01-20T09:58:13.381Z,38.50
2023-01-20T10:00:42.314Z,46.67
2023-01-20T10:03:14.588Z,47.22
2023-01-20T10:05:43.946Z,34.67
2023-01-20T10:08:14.745Z,38.67
2023-01-20T10:10:48.626Z,30.77
2023-01-20T10:13:20.268Z,32.22
2023-01-20T10:15:50.071Z,27.30
2023-01-20T10:18:18.922Z,29.25
2023-01-20T10:20:50.121Z,28.15
2023-01-20T10:23:21.459Z,24.73
2023-01-20T10:25:52.452Z,27.88
2023-01-20T10:28:24.683Z,30.63
2023-01-20T10:30:52.318Z,23.38
2023-01-20T10:33:22.178Z,26.88
2023-01-20T10:35:52.860Z,24.63
2023-01-20T10:38:23.857Z,26.73
2023-01-20T10:40:54.932Z,30.33
2023-01-20T10:43:22.561Z,28.48
2023-01-20T10:46:18.542Z,29.25
2023-01-20T10:49:00.445Z,28.65
2023-01-20T10:51:34.323Z,30.10
2023-01-20T10:54:10.566Z,31.83
2023-01-20T10:56:43.747Z,27.30
2023-01-20T10:59:15.342Z,23.45
2023-01-20T11:01:44.278Z,31.08
2023-01-20T11:04:18.355Z,33.25
2023-01-20T11:06:50.308Z,31.52
2023-01-20T11:09:21.855Z,21.58
2023-01-20T11:11:49.491Z,24.00
2023-01-20T11:14:17.076Z,27.83
2023-01-20T11:16:48.087Z,30.10
2023-01-20T11:19:15.836Z,17.98
2023-01-20T11:21:43.311Z,19.52
2023-01-20T11:27:12.053Z,21.02
2023-01-20T11:29:42.181Z,25.60
2023-01-20T11:32:25.839Z,22.20
2023-01-20T11:34:53.959Z,18.92
2023-01-20T11:37:22.576Z,19.92
2023-01-20T11:40:00.237Z,20.63
2023-01-20T11:42:30.685Z,19.75
2023-01-20T11:45:15.290Z,21.05
2023-01-20T11:47:47.064Z,24.90
2023-01-20T11:50:31.130Z,21.65
2023-01-20T11:53:20.139Z,24.30
2023-01-20T11:55:53.853Z,22.80
2023-01-20T11:58:24.451Z,22.65
2023-01-20T12:00:54.228Z,25.15
2023-01-20T12:03:39.708Z,24.33
2023-01-20T12:06:13.392Z,20.90
2023-01-20T12:08:46.770Z,22.92
2023-01-20T12:11:16.126Z,19.80
2023-01-20T12:14:07.372Z,23.35
2023-01-20T12:16:35.640Z,22.90
2023-01-20T12:19:05.869Z,23.52
2023-01-20T12:21:36.753Z,25.90
2023-01-20T12:24:10.705Z,22.70
2023-01-20T12:26:38.252Z,21.75
2023-01-20T12:29:12.943Z,21.17
2023-01-20T12:31:40.592Z,27.83
2023-01-20T12:34:12.272Z,31.92
2023-01-20T12:37:03.302Z,30.58
2023-01-20T12:39:44.274Z,24.67
2023-01-20T12:42:24.008Z,18.75
2023-01-20T12:44:54.941Z,26.50
2023-01-20T12:47:35.443Z,23.52
2023-01-20T12:50:15.147Z,28.20
2023-01-20T12:52:52.136Z,23.42
2023-01-20T12:55:32.844Z,20.02
2023-01-20T12:58:09.146Z,23.38
2023-01-20T13:01:04.621Z,19.13
2023-01-20T13:03:56.615Z,36.92
2023-01-20T13:06:44.517Z,27.70
2023-01-20T13:09:25.684Z,31.35
2023-01-20T13:12:03.122Z,27.65
2023-01-20T13:14:39.221Z,27.23
2023-01-20T13:17:16.730Z,20.92
2023-01-20T13:19:47.963Z,19.67
2023-01-20T13:22:18.111Z,17.20
2023-01-20T13:24:47.522Z,19.02
2023-01-20T13:27:16.137Z,19.92
2023-01-20T13:29:53.626Z,19.65
2023-01-20T13:32:34.373Z,16.13
2023-01-20T13:35:02.971Z,19.65
2023-01-20T13:37:33.405Z,18.20
2023-01-20T13:40:01.151Z,23.70
2023-01-20T13:42:31.236Z,20.63
2023-01-20T13:45:17.664Z,21.02
2023-01-20T13:47:57.368Z,17.98
2023-01-20T13:50:27.355Z,17.30
2023-01-20T13:53:16.420Z,23.38
2023-01-20T13:56:00.477Z,18.63
2023-01-20T13:58:29.678Z,18.00
2023-01-20T14:00:58.694Z,22.83
2023-01-20T14:03:30.011Z,22.83
2023-01-20T14:06:00.578Z,23.70
2023-01-20T14:08:30.557Z,27.45
2023-01-20T14:11:08.831Z,22.92
2023-01-20T14:13:36.335Z,18.27
2023-01-20T14:16:03.903Z,16.52
2023-01-20T14:18:32.892Z,18.77
2023-01-20T14:21:03.905Z,20.65
2023-01-20T14:23:35.184Z,19.38
2023-01-20T14:26:05.678Z,19.67
2023-01-20T14:28:35.462Z,23.83
2023-01-20T14:31:13.834Z,20.95
2023-01-20T14:33:47.075Z,20.45
2023-01-20T14:36:18.720Z,20.33
2023-01-20T14:38:57.286Z,19.52
2023-01-20T14:41:30.826Z,21.10
2023-01-20T14:43:58.839Z,19.30
2023-01-20T14:46:27.558Z,19.40
2023-01-20T14:48:57.123Z,21.60
2023-01-20T14:51:24.761Z,23.13
2023-01-20T14:54:44.903Z,22.58
2023-01-20T14:57:20.011Z,19.95
2023-01-20T14:59:47.528Z,20.80
2023-01-20T15:02:20.577Z,16.85
2023-01-20T15:07:19.481Z,16.65
2023-01-20T15:09:52.724Z,18.70
2023-01-20T15:12:40.350Z,20.30
2023-01-20T15:15:14.825Z,22.27
2023-01-20T15:18:15.886Z,21.50
2023-01-20T15:20:46.791Z,19.05
2023-01-20T15:23:31.295Z,23.67
2023-01-20T15:26:08.489Z,23.45
2023-01-20T15:28:38.732Z,33.95
2023-01-20T15:31:06.448Z,27.63
2023-01-20T15:33:33.954Z,26.80
2023-01-20T15:36:02.745Z,30.17
2023-01-20T15:38:33.016Z,19.38
2023-01-20T15:41:00.495Z,16.35
2023-01-20T15:43:28.011Z,39.83
2023-01-20T15:45:55.466Z,98.43
2023-01-20T15:48:24.374Z,111.60
2023-01-20T15:50:51.948Z,77.10
2023-01-20T15:53:20.735Z,47.70
2023-01-20T15:55:51.716Z,30.60
2023-01-20T15:58:25.337Z,32.40
2023-01-20T16:00:53.283Z,52.00
2023-01-20T16:03:20.785Z,35.28
2023-01-20T16:05:49.439Z,43.05
2023-01-20T16:08:18.031Z,57.15
2023-01-20T16:10:46.930Z,56.35
2023-01-20T16:13:14.890Z,42.22
2023-01-20T16:15:43.410Z,23.95
2023-01-20T16:18:15.458Z,22.80
2023-01-20T16:20:43.895Z,31.60
2023-01-20T16:23:11.863Z,30.67
2023-01-20T16:25:40.038Z,32.53
2023-01-20T16:28:15.544Z,22.15
2023-01-20T16:30:43.513Z,21.77
2023-01-20T16:33:18.935Z,21.42
2023-01-20T16:35:46.681Z,23.50
2023-01-20T16:38:15.597Z,20.80
2023-01-20T16:40:47.537Z,16.63
2023-01-20T16:43:17.512Z,15.95
2023-01-20T16:45:45.398Z,16.08
2023-01-20T16:48:12.985Z,17.17
2023-01-20T16:50:40.472Z,15.45
2023-01-20T16:53:07.950Z,15.82
2023-01-20T16:55:35.436Z,23.42
2023-01-20T16:58:03.012Z,27.27
2023-01-20T17:00:31.809Z,20.20
2023-01-20T17:02:59.292Z,18.30
2023-01-20T17:05:28.386Z,21.23
2023-01-20T17:07:57.614Z,23.38
2023-01-20T17:10:26.291Z,27.13
2023-01-20T17:12:54.357Z,25.85
2023-01-20T17:15:22.400Z,28.17
2023-01-20T17:17:51.905Z,29.48
2023-01-20T17:20:19.852Z,26.55
2023-01-20T17:22:47.775Z,25.50
2023-01-20T17:25:17.935Z,21.75
2023-01-20T17:27:45.844Z,22.98
2023-01-20T17:30:14.152Z,21.17
2023-01-20T17:32:42.190Z,21.25
2023-01-20T17:35:11.421Z,19.35
2023-01-20T17:37:38.934Z,21.23
2023-01-20T17:40:07.474Z,20.70
2023-01-20T17:42:34.946Z,32.38
2023-01-20T17:45:06.386Z,22.63
2023-01-20T17:47:33.865Z,24.23
2023-01-20T17:50:01.354Z,23.90
2023-01-20T17:52:30.230Z,25.58
2023-01-20T17:54:57.724Z,21.25
2023-01-20T17:57:27.015Z,20.92
2023-01-20T17:59:54.703Z,21.33
2023-01-20T18:02:22.397Z,28.05
2023-01-20T18:04:49.932Z,20.98
2023-01-20T18:07:17.660Z,22.00
2023-01-20T18:09:46.433Z,27.88
2023-01-20T18:12:14.399Z,19.10
2023-01-20T18:14:41.881Z,24.85
2023-01-20T18:17:09.406Z,23.40
2023-01-20T18:19:36.905Z,40.00
2023-01-20T18:22:06.948Z,19.88
2023-01-20T18:24:34.595Z,31.67
2023-01-20T18:27:03.380Z,21.65
2023-01-20T18:29:31.189Z,23.92
2023-01-20T18:31:59.030Z,18.52
2023-01-20T18:34:26.543Z,23.98
2023-01-20T18:36:54.178Z,21.92
2023-01-20T18:39:23.593Z,30.92
2023-01-20T18:41:52.265Z,24.15
2023-01-20T18:44:23.099Z,56.67
2023-01-20T18:46:50.807Z,50.90
2023-01-20T18:49:18.584Z,30.40
2023-01-20T18:51:46.106Z,35.90
2023-01-20T18:54:14.811Z,25.08
2023-01-20T18:56:42.294Z,28.30
2023-01-20T18:59:11.069Z,19.63
2023-01-20T19:01:41.222Z,28.98
2023-01-20T19:04:10.723Z,38.00
2023-01-20T19:06:41.850Z,40.65
2023-01-20T19:09:09.893Z,50.28
2023-01-20T19:11:39.583Z,52.83
2023-01-20T19:14:07.903Z,32.95
2023-01-20T19:16:37.822Z,27.15
2023-01-20T19:19:07.892Z,27.83
2023-01-20T19:21:36.563Z,22.50
2023-01-20T19:24:06.074Z,27.48
2023-01-20T19:26:35.463Z,25.63
2023-01-20T19:29:04.913Z,28.85
2023-01-20T19:31:34.207Z,30.38
2023-01-20T19:34:01.995Z,25.02
2023-01-20T19:36:30.805Z,65.50
2023-01-20T19:39:00.141Z,76.40
2023-01-20T19:41:29.215Z,127.82
2023-01-20T19:43:57.978Z,129.40
2023-01-20T19:46:27.221Z,32.53
2023-01-20T19:48:56.486Z,26.13
2023-01-20T19:51:24.456Z,32.53
2023-01-20T19:53:57.802Z,55.00
2023-01-20T19:56:26.525Z,67.53
2023-01-20T19:58:55.255Z,48.55
2023-01-20T20:01:24.850Z,32.85
2023-01-20T20:03:53.802Z,32.30
2023-01-20T20:06:24.101Z,100.00
2023-01-20T20:08:52.310Z,94.55
2023-01-20T20:11:21.128Z,115.32
2023-01-20T20:13:48.924Z,68.68
2023-01-20T20:16:16.570Z,75.10
2023-01-20T20:18:44.181Z,33.63
2023-01-20T20:21:11.846Z,41.67
2023-01-20T20:23:39.331Z,44.10
2023-01-20T20:26:06.915Z,72.43
2023-01-20T20:28:35.882Z,115.85
2023-01-20T20:31:05.991Z,85.55
2023-01-20T20:33:34.230Z,65.47
2023-01-20T20:36:06.560Z,51.20
2023-01-20T20:38:36.544Z,146.63
2023-01-20T20:41:04.774Z,56.90
2023-01-20T20:43:32.317Z,46.80
2023-01-20T20:46:01.813Z,70.80
2023-01-20T20:48:29.801Z,59.88
2023-01-20T20:50:57.445Z,59.15
2023-01-20T20:53:25.047Z,49.38
2023-01-20T20:55:55.280Z,64.35
2023-01-20T20:58:23.325Z,35.67
2023-01-20T21:00:51.746Z,56.90
2023-01-20T21:03:20.534Z,102.90
2023-01-20T21:05:49.407Z,46.35
2023-01-20T21:08:17.187Z,82.72
2023-01-20T21:10:44.666Z,112.85
2023-01-20T21:13:12.231Z,39.38
2023-01-20T21:15:39.760Z,64.00
2023-01-20T21:18:07.481Z,103.45
2023-01-20T21:20:36.318Z,190.90
2023-01-20T21:23:04.518Z,66.75
2023-01-20T21:25:32.863Z,70.50
2023-01-20T21:28:00.369Z,96.30
2023-01-20T21:30:27.939Z,74.88
2023-01-20T21:32:56.548Z,84.60
2023-01-20T21:35:24.160Z,53.03
2023-01-20T21:37:53.210Z,48.47
2023-01-20T21:40:20.803Z,46.45
2023-01-20T21:42:49.838Z,316.50
2023-01-20T21:45:16.763Z,121.72
2023-01-20T21:47:44.235Z,148.30
2023-01-20T21:50:29.735Z,169.18
2023-01-20T21:52:58.822Z,253.48
2023-01-20T21:55:26.274Z,88.90
2023-01-20T21:57:53.816Z,38.83
2023-01-20T22:00:22.003Z,40.88
2023-01-20T22:02:49.773Z,33.70
2023-01-20T22:05:18.282Z,37.22
2023-01-20T22:07:47.795Z,47.53
2023-01-20T22:10:17.534Z,179.90
2023-01-20T22:12:45.399Z,161.23
2023-01-20T22:15:13.470Z,325.30
2023-01-20T22:17:41.368Z,142.45
2023-01-20T22:20:10.671Z,46.00
2023-01-20T22:22:38.411Z,45.42
2023-01-20T22:25:07.370Z,67.22
2023-01-20T22:27:36.355Z,63.90
2023-01-20T22:30:04.174Z,154.23
2023-01-20T22:32:31.880Z,153.88
2023-01-20T22:34:59.637Z,68.10
2023-01-20T22:37:27.088Z,50.03
2023-01-20T22:39:54.589Z,94.78
2023-01-20T22:42:22.040Z,53.72
2023-01-20T22:44:50.926Z,42.15
2023-01-20T22:47:18.395Z,82.07
2023-01-20T22:49:45.851Z,95.13
2023-01-20T22:52:13.529Z,54.10
2023-01-20T22:54:40.967Z,52.47
2023-01-20T22:57:08.428Z,105.10
2023-01-20T22:59:36.475Z,60.92
2023-01-20T23:02:05.544Z,85.88
2023-01-20T23:04:33.136Z,58.42
2023-01-20T23:07:00.793Z,72.40
2023-01-20T23:09:28.535Z,47.83
2023-01-20T23:11:56.012Z,134.82
2023-01-20T23:14:51.797Z,101.15
2023-01-20T23:17:20.592Z,131.18
2023-01-20T23:19:48.044Z,75.93
2023-01-20T23:22:15.550Z,96.10
2023-01-20T23:24:43.032Z,50.40
2023-01-20T23:27:10.655Z,43.00
2023-01-20T23:29:38.309Z,76.90
2023-01-20T23:32:06.382Z,47.35
2023-01-20T23:34:35.173Z,48.60
2023-01-20T23:37:02.821Z,60.25
2023-01-20T23:39:30.303Z,48.20
2023-01-20T23:41:57.887Z,52.00
2023-01-20T23:44:25.491Z,68.75
2023-01-20T23:46:53.195Z,52.45
2023-01-20T23:49:22.615Z,66.03
2023-01-20T23:51:51.691Z,73.28
2023-01-20T23:54:19.303Z,61.80
2023-01-20T23:56:47.003Z,68.38
2023-01-20T23:59:14.587Z,62.88
